sensor_id;sensor_type;location;lat;lon;timestamp;P1;durP1;ratioP1;P2;durP2;ratioP2
13568;SDS011;6856;51.460;7.158;2022-12-10T00:01:13;24.03;;;20.63;;
13568;SDS011;6856;51.460;7.158;2022-12-10T00:03:49;26.57;;;22.03;;
13568;SDS011;6856;51.460;7.158;2022-12-10T00:06:28;23.47;;;20.27;;
13568;SDS011;6856;51.460;7.158;2022-12-10T00:09:10;25.73;;;20.87;;
13568;SDS011;6856;51.460;7.158;2022-12-10T00:11:48;28.90;;;21.73;;
13568;SDS011;6856;51.460;7.158;2022-12-10T00:14:26;23.20;;;19.73;;
13568;SDS011;6856;51.460;7.158;2022-12-10T00:17:04;25.37;;;19.53;;
13568;SDS011;6856;51.460;7.158;2022-12-10T00:19:43;24.67;;;20.33;;
13568;SDS011;6856;51.460;7.158;2022-12-10T00:22:17;26.00;;;21.47;;
13568;SDS011;6856;51.460;7.158;2022-12-10T00:25:00;24.20;;;19.90;;
13568;SDS011;6856;51.460;7.158;2022-12-10T00:27:35;26.47;;;21.30;;
13568;SDS011;6856;51.460;7.158;2022-12-10T00:30:16;25.00;;;20.73;;
13568;SDS011;6856;51.460;7.158;2022-12-10T00:32:53;26.17;;;20.57;;
13568;SDS011;6856;51.460;7.158;2022-12-10T00:35:27;25.37;;;20.00;;
13568;SDS011;6856;51.460;7.158;2022-12-10T00:38:01;24.10;;;20.10;;
13568;SDS011;6856;51.460;7.158;2022-12-10T00:40:37;27.27;;;21.00;;
13568;SDS011;6856;51.460;7.158;2022-12-10T00:43:11;24.80;;;19.87;;
13568;SDS011;6856;51.460;7.158;2022-12-10T00:45:47;26.10;;;20.07;;
13568;SDS011;6856;51.460;7.158;2022-12-10T00:48:21;23.70;;;19.87;;
13568;SDS011;6856;51.460;7.158;2022-12-10T00:50:59;25.80;;;20.63;;
13568;SDS011;6856;51.460;7.158;2022-12-10T00:53:56;23.10;;;19.03;;
13568;SDS011;6856;51.460;7.158;2022-12-10T00:56:33;23.63;;;18.87;;
13568;SDS011;6856;51.460;7.158;2022-12-10T00:59:09;24.27;;;19.43;;
13568;SDS011;6856;51.460;7.158;2022-12-10T01:01:47;25.03;;;20.10;;
13568;SDS011;6856;51.460;7.158;2022-12-10T01:04:22;25.37;;;19.17;;
13568;SDS011;6856;51.460;7.158;2022-12-10T01:06:56;25.10;;;20.03;;
13568;SDS011;6856;51.460;7.158;2022-12-10T01:09:32;27.53;;;19.10;;
13568;SDS011;6856;51.460;7.158;2022-12-10T01:12:07;26.00;;;19.50;;
13568;SDS011;6856;51.460;7.158;2022-12-10T01:14:44;21.80;;;18.03;;
13568;SDS011;6856;51.460;7.158;2022-12-10T01:17:19;22.73;;;18.53;;
13568;SDS011;6856;51.460;7.158;2022-12-10T01:19:53;24.47;;;20.37;;
13568;SDS011;6856;51.460;7.158;2022-12-10T01:22:40;23.40;;;19.70;;
13568;SDS011;6856;51.460;7.158;2022-12-10T01:25:16;23.73;;;19.53;;
13568;SDS011;6856;51.460;7.158;2022-12-10T01:27:55;24.30;;;20.00;;
13568;SDS011;6856;51.460;7.158;2022-12-10T01:30:32;23.33;;;19.77;;
13568;SDS011;6856;51.460;7.158;2022-12-10T01:33:07;23.27;;;18.87;;
13568;SDS011;6856;51.460;7.158;2022-12-10T01:35:42;24.97;;;20.23;;
13568;SDS011;6856;51.460;7.158;2022-12-10T01:38:16;23.40;;;19.20;;
13568;SDS011;6856;51.460;7.158;2022-12-10T01:40:50;23.20;;;19.53;;
13568;SDS011;6856;51.460;7.158;2022-12-10T01:43:25;25.43;;;19.70;;
13568;SDS011;6856;51.460;7.158;2022-12-10T01:45:59;22.77;;;18.10;;
13568;SDS011;6856;51.460;7.158;2022-12-10T01:48:35;24.90;;;19.53;;
13568;SDS011;6856;51.460;7.158;2022-12-10T01:51:09;23.47;;;18.60;;
13568;SDS011;6856;51.460;7.158;2022-12-10T01:53:52;24.10;;;19.00;;
13568;SDS011;6856;51.460;7.158;2022-12-10T01:56:37;23.53;;;19.20;;
13568;SDS011;6856;51.460;7.158;2022-12-10T01:59:20;22.07;;;18.03;;
13568;SDS011;6856;51.460;7.158;2022-12-10T02:01:59;21.77;;;18.20;;
13568;SDS011;6856;51.460;7.158;2022-12-10T02:04:47;23.50;;;18.53;;
13568;SDS011;6856;51.460;7.158;2022-12-10T02:07:50;21.17;;;17.57;;
13568;SDS011;6856;51.460;7.158;2022-12-10T02:10:38;20.50;;;17.10;;
13568;SDS011;6856;51.460;7.158;2022-12-10T02:13:28;22.80;;;18.37;;
13568;SDS011;6856;51.460;7.158;2022-12-10T02:16:12;25.70;;;20.33;;
13568;SDS011;6856;51.460;7.158;2022-12-10T02:18:53;24.97;;;19.37;;
13568;SDS011;6856;51.460;7.158;2022-12-10T02:21:34;23.60;;;18.77;;
13568;SDS011;6856;51.460;7.158;2022-12-10T02:24:14;23.57;;;18.40;;
13568;SDS011;6856;51.460;7.158;2022-12-10T02:26:58;22.83;;;18.07;;
13568;SDS011;6856;51.460;7.158;2022-12-10T02:29:46;23.57;;;18.77;;
13568;SDS011;6856;51.460;7.158;2022-12-10T02:32:24;22.87;;;18.37;;
13568;SDS011;6856;51.460;7.158;2022-12-10T02:35:06;23.07;;;18.87;;
13568;SDS011;6856;51.460;7.158;2022-12-10T02:37:48;23.53;;;18.43;;
13568;SDS011;6856;51.460;7.158;2022-12-10T02:40:29;20.33;;;17.13;;
13568;SDS011;6856;51.460;7.158;2022-12-10T02:43:06;22.27;;;17.73;;
13568;SDS011;6856;51.460;7.158;2022-12-10T02:46:00;23.53;;;17.43;;
13568;SDS011;6856;51.460;7.158;2022-12-10T02:48:42;24.00;;;18.80;;
13568;SDS011;6856;51.460;7.158;2022-12-10T02:51:17;23.13;;;18.83;;
13568;SDS011;6856;51.460;7.158;2022-12-10T02:53:59;23.07;;;17.97;;
13568;SDS011;6856;51.460;7.158;2022-12-10T02:56:36;23.63;;;19.33;;
13568;SDS011;6856;51.460;7.158;2022-12-10T02:59:20;24.77;;;18.73;;
13568;SDS011;6856;51.460;7.158;2022-12-10T03:02:13;21.23;;;17.67;;
13568;SDS011;6856;51.460;7.158;2022-12-10T03:04:57;21.10;;;16.53;;
13568;SDS011;6856;51.460;7.158;2022-12-10T03:07:46;21.03;;;17.73;;
13568;SDS011;6856;51.460;7.158;2022-12-10T03:10:33;21.07;;;17.30;;
13568;SDS011;6856;51.460;7.158;2022-12-10T03:13:32;20.10;;;17.00;;
13568;SDS011;6856;51.460;7.158;2022-12-10T03:16:21;22.33;;;17.93;;
13568;SDS011;6856;51.460;7.158;2022-12-10T03:19:01;22.30;;;17.90;;
13568;SDS011;6856;51.460;7.158;2022-12-10T03:21:53;20.77;;;17.13;;
13568;SDS011;6856;51.460;7.158;2022-12-10T03:24:36;22.57;;;17.87;;
13568;SDS011;6856;51.460;7.158;2022-12-10T03:27:16;21.43;;;17.97;;
13568;SDS011;6856;51.460;7.158;2022-12-10T03:30:02;22.63;;;17.57;;
13568;SDS011;6856;51.460;7.158;2022-12-10T03:32:38;19.30;;;16.30;;
13568;SDS011;6856;51.460;7.158;2022-12-10T03:35:14;22.50;;;18.23;;
13568;SDS011;6856;51.460;7.158;2022-12-10T03:37:52;21.63;;;17.43;;
13568;SDS011;6856;51.460;7.158;2022-12-10T03:40:27;19.90;;;16.30;;
13568;SDS011;6856;51.460;7.158;2022-12-10T03:43:01;18.23;;;15.37;;
13568;SDS011;6856;51.460;7.158;2022-12-10T03:45:41;20.70;;;17.33;;
13568;SDS011;6856;51.460;7.158;2022-12-10T03:48:18;21.40;;;17.50;;
13568;SDS011;6856;51.460;7.158;2022-12-10T03:51:11;22.63;;;18.27;;
13568;SDS011;6856;51.460;7.158;2022-12-10T03:53:53;20.90;;;16.53;;
13568;SDS011;6856;51.460;7.158;2022-12-10T03:56:27;21.27;;;17.07;;
13568;SDS011;6856;51.460;7.158;2022-12-10T03:59:07;20.80;;;17.70;;
13568;SDS011;6856;51.460;7.158;2022-12-10T04:01:44;19.07;;;16.20;;
13568;SDS011;6856;51.460;7.158;2022-12-10T04:04:25;21.77;;;17.57;;
13568;SDS011;6856;51.460;7.158;2022-12-10T04:07:09;20.73;;;15.63;;
13568;SDS011;6856;51.460;7.158;2022-12-10T04:09:44;17.00;;;14.07;;
13568;SDS011;6856;51.460;7.158;2022-12-10T04:12:21;17.50;;;13.17;;
13568;SDS011;6856;51.460;7.158;2022-12-10T04:14:58;18.93;;;15.40;;
13568;SDS011;6856;51.460;7.158;2022-12-10T04:17:56;20.57;;;15.97;;
13568;SDS011;6856;51.460;7.158;2022-12-10T04:20:32;18.70;;;15.20;;
13568;SDS011;6856;51.460;7.158;2022-12-10T04:23:30;18.87;;;15.40;;
13568;SDS011;6856;51.460;7.158;2022-12-10T04:26:20;20.63;;;16.40;;
13568;SDS011;6856;51.460;7.158;2022-12-10T04:29:16;19.33;;;15.30;;
13568;SDS011;6856;51.460;7.158;2022-12-10T04:31:54;19.77;;;16.07;;
13568;SDS011;6856;51.460;7.158;2022-12-10T04:34:31;21.13;;;16.33;;
13568;SDS011;6856;51.460;7.158;2022-12-10T04:37:05;20.00;;;16.23;;
13568;SDS011;6856;51.460;7.158;2022-12-10T04:39:41;18.97;;;15.97;;
13568;SDS011;6856;51.460;7.158;2022-12-10T04:42:16;17.73;;;14.73;;
13568;SDS011;6856;51.460;7.158;2022-12-10T04:44:50;19.50;;;15.17;;
13568;SDS011;6856;51.460;7.158;2022-12-10T04:47:24;17.17;;;14.53;;
13568;SDS011;6856;51.460;7.158;2022-12-10T04:49:59;18.63;;;14.87;;
13568;SDS011;6856;51.460;7.158;2022-12-10T04:52:34;18.97;;;15.33;;
13568;SDS011;6856;51.460;7.158;2022-12-10T04:55:09;19.57;;;16.10;;
13568;SDS011;6856;51.460;7.158;2022-12-10T04:57:44;18.33;;;15.13;;
13568;SDS011;6856;51.460;7.158;2022-12-10T05:00:19;20.10;;;15.43;;
13568;SDS011;6856;51.460;7.158;2022-12-10T05:02:55;16.77;;;14.30;;
13568;SDS011;6856;51.460;7.158;2022-12-10T05:05:35;17.10;;;14.27;;
13568;SDS011;6856;51.460;7.158;2022-12-10T05:08:16;19.33;;;14.70;;
13568;SDS011;6856;51.460;7.158;2022-12-10T05:10:59;15.77;;;13.83;;
13568;SDS011;6856;51.460;7.158;2022-12-10T05:13:38;16.77;;;13.00;;
13568;SDS011;6856;51.460;7.158;2022-12-10T05:19:34;16.97;;;13.37;;
13568;SDS011;6856;51.460;7.158;2022-12-10T05:22:12;18.23;;;14.23;;
13568;SDS011;6856;51.460;7.158;2022-12-10T05:25:26;16.67;;;13.70;;
13568;SDS011;6856;51.460;7.158;2022-12-10T05:28:29;14.23;;;12.53;;
13568;SDS011;6856;51.460;7.158;2022-12-10T05:31:12;16.47;;;13.83;;
13568;SDS011;6856;51.460;7.158;2022-12-10T05:33:55;15.90;;;13.40;;
13568;SDS011;6856;51.460;7.158;2022-12-10T05:36:35;15.60;;;12.80;;
13568;SDS011;6856;51.460;7.158;2022-12-10T05:39:13;16.13;;;13.30;;
13568;SDS011;6856;51.460;7.158;2022-12-10T05:41:58;15.20;;;12.63;;
13568;SDS011;6856;51.460;7.158;2022-12-10T05:44:38;15.73;;;12.90;;
13568;SDS011;6856;51.460;7.158;2022-12-10T05:47:13;15.77;;;13.43;;
13568;SDS011;6856;51.460;7.158;2022-12-10T05:49:47;15.30;;;12.73;;
13568;SDS011;6856;51.460;7.158;2022-12-10T05:52:23;15.90;;;12.70;;
13568;SDS011;6856;51.460;7.158;2022-12-10T05:54:57;15.87;;;13.43;;
13568;SDS011;6856;51.460;7.158;2022-12-10T05:57:31;14.70;;;12.63;;
13568;SDS011;6856;51.460;7.158;2022-12-10T06:00:20;15.13;;;12.10;;
13568;SDS011;6856;51.460;7.158;2022-12-10T06:03:04;16.27;;;13.00;;
13568;SDS011;6856;51.460;7.158;2022-12-10T06:05:38;14.63;;;12.00;;
13568;SDS011;6856;51.460;7.158;2022-12-10T06:08:14;14.27;;;12.10;;
13568;SDS011;6856;51.460;7.158;2022-12-10T06:10:52;16.23;;;12.67;;
13568;SDS011;6856;51.460;7.158;2022-12-10T06:13:29;14.40;;;12.07;;
13568;SDS011;6856;51.460;7.158;2022-12-10T06:16:05;15.10;;;12.83;;
13568;SDS011;6856;51.460;7.158;2022-12-10T06:18:45;14.50;;;12.47;;
13568;SDS011;6856;51.460;7.158;2022-12-10T06:21:19;15.10;;;12.07;;
13568;SDS011;6856;51.460;7.158;2022-12-10T06:23:54;13.53;;;11.17;;
13568;SDS011;6856;51.460;7.158;2022-12-10T06:26:28;15.20;;;12.17;;
13568;SDS011;6856;51.460;7.158;2022-12-10T06:29:12;14.87;;;11.73;;
13568;SDS011;6856;51.460;7.158;2022-12-10T06:31:49;14.13;;;11.87;;
13568;SDS011;6856;51.460;7.158;2022-12-10T06:34:34;14.63;;;12.23;;
13568;SDS011;6856;51.460;7.158;2022-12-10T06:37:13;17.00;;;12.93;;
13568;SDS011;6856;51.460;7.158;2022-12-10T06:39:52;15.47;;;12.40;;
13568;SDS011;6856;51.460;7.158;2022-12-10T06:42:44;13.27;;;11.37;;
13568;SDS011;6856;51.460;7.158;2022-12-10T06:45:18;13.73;;;11.00;;
13568;SDS011;6856;51.460;7.158;2022-12-10T06:47:56;15.00;;;12.27;;
13568;SDS011;6856;51.460;7.158;2022-12-10T06:50:30;14.63;;;12.03;;
13568;SDS011;6856;51.460;7.158;2022-12-10T06:53:05;15.53;;;12.73;;
13568;SDS011;6856;51.460;7.158;2022-12-10T06:55:39;14.97;;;12.00;;
13568;SDS011;6856;51.460;7.158;2022-12-10T06:58:13;13.30;;;11.50;;
13568;SDS011;6856;51.460;7.158;2022-12-10T07:00:47;13.50;;;11.67;;
13568;SDS011;6856;51.460;7.158;2022-12-10T07:03:23;15.07;;;13.47;;
13568;SDS011;6856;51.460;7.158;2022-12-10T07:05:57;17.53;;;14.70;;
13568;SDS011;6856;51.460;7.158;2022-12-10T07:08:31;18.17;;;14.47;;
13568;SDS011;6856;51.460;7.158;2022-12-10T07:11:06;19.60;;;15.77;;
13568;SDS011;6856;51.460;7.158;2022-12-10T07:13:43;17.93;;;15.17;;
13568;SDS011;6856;51.460;7.158;2022-12-10T07:16:22;19.33;;;15.50;;
13568;SDS011;6856;51.460;7.158;2022-12-10T07:19:00;23.17;;;17.27;;
13568;SDS011;6856;51.460;7.158;2022-12-10T07:21:40;22.03;;;16.93;;
13568;SDS011;6856;51.460;7.158;2022-12-10T07:24:18;22.77;;;18.13;;
13568;SDS011;6856;51.460;7.158;2022-12-10T07:26:52;22.97;;;17.20;;
13568;SDS011;6856;51.460;7.158;2022-12-10T07:29:27;21.43;;;17.00;;
13568;SDS011;6856;51.460;7.158;2022-12-10T07:32:09;20.70;;;16.20;;
13568;SDS011;6856;51.460;7.158;2022-12-10T07:34:46;21.53;;;17.30;;
13568;SDS011;6856;51.460;7.158;2022-12-10T07:37:22;20.60;;;16.10;;
13568;SDS011;6856;51.460;7.158;2022-12-10T07:40:06;21.43;;;17.27;;
13568;SDS011;6856;51.460;7.158;2022-12-10T07:42:42;23.10;;;18.60;;
13568;SDS011;6856;51.460;7.158;2022-12-10T07:45:24;24.93;;;18.50;;
13568;SDS011;6856;51.460;7.158;2022-12-10T07:47:59;26.60;;;19.93;;
13568;SDS011;6856;51.460;7.158;2022-12-10T07:50:36;24.43;;;18.40;;
13568;SDS011;6856;51.460;7.158;2022-12-10T07:53:10;27.17;;;20.13;;
13568;SDS011;6856;51.460;7.158;2022-12-10T07:55:48;28.00;;;20.73;;
13568;SDS011;6856;51.460;7.158;2022-12-10T07:58:25;28.27;;;20.90;;
13568;SDS011;6856;51.460;7.158;2022-12-10T08:00:58;26.20;;;18.70;;
13568;SDS011;6856;51.460;7.158;2022-12-10T08:03:42;29.33;;;22.07;;
13568;SDS011;6856;51.460;7.158;2022-12-10T08:06:18;24.57;;;19.03;;
13568;SDS011;6856;51.460;7.158;2022-12-10T08:08:54;28.03;;;20.23;;
13568;SDS011;6856;51.460;7.158;2022-12-10T08:11:37;27.97;;;20.47;;
13568;SDS011;6856;51.460;7.158;2022-12-10T08:14:15;28.63;;;20.60;;
13568;SDS011;6856;51.460;7.158;2022-12-10T08:16:49;28.63;;;21.47;;
13568;SDS011;6856;51.460;7.158;2022-12-10T08:19:24;28.57;;;20.63;;
13568;SDS011;6856;51.460;7.158;2022-12-10T08:22:03;28.40;;;21.60;;
13568;SDS011;6856;51.460;7.158;2022-12-10T08:24:37;31.10;;;21.60;;
13568;SDS011;6856;51.460;7.158;2022-12-10T08:27:12;26.33;;;20.30;;
13568;SDS011;6856;51.460;7.158;2022-12-10T08:29:47;26.23;;;19.70;;
13568;SDS011;6856;51.460;7.158;2022-12-10T08:32:23;27.30;;;20.33;;
13568;SDS011;6856;51.460;7.158;2022-12-10T08:34:57;25.43;;;19.50;;
13568;SDS011;6856;51.460;7.158;2022-12-10T08:37:34;27.43;;;19.30;;
13568;SDS011;6856;51.460;7.158;2022-12-10T08:40:09;27.70;;;20.07;;
13568;SDS011;6856;51.460;7.158;2022-12-10T08:42:48;28.53;;;20.93;;
13568;SDS011;6856;51.460;7.158;2022-12-10T08:45:28;29.10;;;21.57;;
13568;SDS011;6856;51.460;7.158;2022-12-10T08:48:08;25.93;;;19.00;;
13568;SDS011;6856;51.460;7.158;2022-12-10T08:50:44;28.47;;;19.37;;
13568;SDS011;6856;51.460;7.158;2022-12-10T08:53:34;28.03;;;20.17;;
13568;SDS011;6856;51.460;7.158;2022-12-10T08:56:09;28.70;;;21.47;;
13568;SDS011;6856;51.460;7.158;2022-12-10T08:58:44;26.53;;;20.53;;
13568;SDS011;6856;51.460;7.158;2022-12-10T09:01:18;28.43;;;20.73;;
13568;SDS011;6856;51.460;7.158;2022-12-10T09:03:56;30.40;;;21.77;;
13568;SDS011;6856;51.460;7.158;2022-12-10T09:06:34;30.43;;;20.93;;
13568;SDS011;6856;51.460;7.158;2022-12-10T09:09:13;27.57;;;20.73;;
13568;SDS011;6856;51.460;7.158;2022-12-10T09:11:47;28.47;;;20.83;;
13568;SDS011;6856;51.460;7.158;2022-12-10T09:14:24;27.57;;;20.43;;
13568;SDS011;6856;51.460;7.158;2022-12-10T09:16:59;33.07;;;22.80;;
13568;SDS011;6856;51.460;7.158;2022-12-10T09:19:36;28.40;;;20.30;;
13568;SDS011;6856;51.460;7.158;2022-12-10T09:22:17;28.77;;;21.50;;
13568;SDS011;6856;51.460;7.158;2022-12-10T09:24:54;29.40;;;21.60;;
13568;SDS011;6856;51.460;7.158;2022-12-10T09:27:29;29.27;;;21.23;;
13568;SDS011;6856;51.460;7.158;2022-12-10T09:30:11;31.10;;;22.17;;
13568;SDS011;6856;51.460;7.158;2022-12-10T09:32:46;31.00;;;22.43;;
13568;SDS011;6856;51.460;7.158;2022-12-10T09:35:22;30.53;;;21.57;;
13568;SDS011;6856;51.460;7.158;2022-12-10T09:37:57;30.43;;;22.37;;
13568;SDS011;6856;51.460;7.158;2022-12-10T09:40:46;29.83;;;22.30;;
13568;SDS011;6856;51.460;7.158;2022-12-10T09:43:37;29.00;;;20.53;;
13568;SDS011;6856;51.460;7.158;2022-12-10T09:46:31;29.77;;;21.50;;
13568;SDS011;6856;51.460;7.158;2022-12-10T09:49:23;31.53;;;21.30;;
13568;SDS011;6856;51.460;7.158;2022-12-10T09:52:19;28.40;;;21.50;;
13568;SDS011;6856;51.460;7.158;2022-12-10T09:55:09;32.67;;;23.30;;
13568;SDS011;6856;51.460;7.158;2022-12-10T09:57:49;31.23;;;23.00;;
13568;SDS011;6856;51.460;7.158;2022-12-10T10:00:25;29.53;;;22.33;;
13568;SDS011;6856;51.460;7.158;2022-12-10T10:03:11;35.03;;;24.93;;
13568;SDS011;6856;51.460;7.158;2022-12-10T10:05:49;35.33;;;24.90;;
13568;SDS011;6856;51.460;7.158;2022-12-10T10:08:28;35.53;;;25.13;;
13568;SDS011;6856;51.460;7.158;2022-12-10T10:11:10;34.37;;;25.07;;
13568;SDS011;6856;51.460;7.158;2022-12-10T10:13:52;33.77;;;25.00;;
13568;SDS011;6856;51.460;7.158;2022-12-10T10:16:34;34.77;;;25.37;;
13568;SDS011;6856;51.460;7.158;2022-12-10T10:19:19;32.47;;;23.33;;
13568;SDS011;6856;51.460;7.158;2022-12-10T10:22:00;29.33;;;22.63;;
13568;SDS011;6856;51.460;7.158;2022-12-10T10:24:39;36.30;;;26.30;;
13568;SDS011;6856;51.460;7.158;2022-12-10T10:27:22;34.10;;;24.77;;
13568;SDS011;6856;51.460;7.158;2022-12-10T10:30:13;36.37;;;26.70;;
13568;SDS011;6856;51.460;7.158;2022-12-10T10:32:52;36.67;;;25.77;;
13568;SDS011;6856;51.460;7.158;2022-12-10T10:35:30;36.73;;;25.83;;
13568;SDS011;6856;51.460;7.158;2022-12-10T10:38:37;31.87;;;23.33;;
13568;SDS011;6856;51.460;7.158;2022-12-10T10:41:14;32.40;;;24.60;;
13568;SDS011;6856;51.460;7.158;2022-12-10T10:43:52;38.20;;;25.80;;
13568;SDS011;6856;51.460;7.158;2022-12-10T10:46:37;35.87;;;25.63;;
13568;SDS011;6856;51.460;7.158;2022-12-10T10:49:19;37.20;;;26.97;;
13568;SDS011;6856;51.460;7.158;2022-12-10T10:51:58;39.03;;;26.63;;
13568;SDS011;6856;51.460;7.158;2022-12-10T10:54:38;36.90;;;27.07;;
13568;SDS011;6856;51.460;7.158;2022-12-10T10:57:15;31.67;;;25.03;;
13568;SDS011;6856;51.460;7.158;2022-12-10T11:00:00;39.00;;;27.40;;
13568;SDS011;6856;51.460;7.158;2022-12-10T11:02:52;37.97;;;28.20;;
13568;SDS011;6856;51.460;7.158;2022-12-10T11:05:29;35.37;;;26.20;;
13568;SDS011;6856;51.460;7.158;2022-12-10T11:08:13;35.33;;;26.00;;
13568;SDS011;6856;51.460;7.158;2022-12-10T11:10:57;41.00;;;26.70;;
13568;SDS011;6856;51.460;7.158;2022-12-10T11:13:37;38.10;;;27.10;;
13568;SDS011;6856;51.460;7.158;2022-12-10T11:16:16;37.57;;;26.60;;
13568;SDS011;6856;51.460;7.158;2022-12-10T11:18:59;32.30;;;25.00;;
13568;SDS011;6856;51.460;7.158;2022-12-10T11:21:38;38.73;;;27.50;;
13568;SDS011;6856;51.460;7.158;2022-12-10T11:24:12;38.03;;;26.77;;
13568;SDS011;6856;51.460;7.158;2022-12-10T11:26:59;37.07;;;27.03;;
13568;SDS011;6856;51.460;7.158;2022-12-10T11:29:50;33.43;;;24.70;;
13568;SDS011;6856;51.460;7.158;2022-12-10T11:32:56;34.93;;;26.50;;
13568;SDS011;6856;51.460;7.158;2022-12-10T11:35:59;36.33;;;26.10;;
13568;SDS011;6856;51.460;7.158;2022-12-10T11:38:45;37.13;;;25.83;;
13568;SDS011;6856;51.460;7.158;2022-12-10T11:41:45;32.23;;;24.40;;
13568;SDS011;6856;51.460;7.158;2022-12-10T11:44:30;32.53;;;24.27;;
13568;SDS011;6856;51.460;7.158;2022-12-10T11:47:20;34.77;;;24.23;;
13568;SDS011;6856;51.460;7.158;2022-12-10T11:50:19;35.83;;;25.10;;
13568;SDS011;6856;51.460;7.158;2022-12-10T11:53:11;34.70;;;24.47;;
13568;SDS011;6856;51.460;7.158;2022-12-10T11:56:05;33.43;;;23.90;;
13568;SDS011;6856;51.460;7.158;2022-12-10T11:58:58;32.07;;;21.77;;
13568;SDS011;6856;51.460;7.158;2022-12-10T12:01:54;33.63;;;24.77;;
13568;SDS011;6856;51.460;7.158;2022-12-10T12:05:11;32.83;;;24.67;;
13568;SDS011;6856;51.460;7.158;2022-12-10T12:08:03;30.13;;;23.47;;
13568;SDS011;6856;51.460;7.158;2022-12-10T12:14:06;31.33;;;23.27;;
13568;SDS011;6856;51.460;7.158;2022-12-10T12:16:51;32.50;;;23.37;;
13568;SDS011;6856;51.460;7.158;2022-12-10T12:19:36;30.80;;;23.47;;
13568;SDS011;6856;51.460;7.158;2022-12-10T12:22:21;34.73;;;24.33;;
13568;SDS011;6856;51.460;7.158;2022-12-10T12:25:09;32.90;;;24.23;;
13568;SDS011;6856;51.460;7.158;2022-12-10T12:28:00;34.43;;;24.23;;
13568;SDS011;6856;51.460;7.158;2022-12-10T12:30:47;32.20;;;23.90;;
13568;SDS011;6856;51.460;7.158;2022-12-10T12:33:35;32.93;;;24.67;;
13568;SDS011;6856;51.460;7.158;2022-12-10T12:36:29;32.60;;;24.07;;
13568;SDS011;6856;51.460;7.158;2022-12-10T12:39:23;34.17;;;24.17;;
13568;SDS011;6856;51.460;7.158;2022-12-10T12:42:17;33.53;;;23.50;;
13568;SDS011;6856;51.460;7.158;2022-12-10T12:45:08;29.47;;;21.93;;
13568;SDS011;6856;51.460;7.158;2022-12-10T12:47:51;29.40;;;21.90;;
13568;SDS011;6856;51.460;7.158;2022-12-10T12:50:41;30.13;;;21.80;;
13568;SDS011;6856;51.460;7.158;2022-12-10T12:53:20;29.47;;;21.53;;
13568;SDS011;6856;51.460;7.158;2022-12-10T12:56:07;28.60;;;21.57;;
13568;SDS011;6856;51.460;7.158;2022-12-10T12:59:08;31.37;;;23.10;;
13568;SDS011;6856;51.460;7.158;2022-12-10T13:01:56;31.77;;;23.70;;
13568;SDS011;6856;51.460;7.158;2022-12-10T13:04:40;31.17;;;23.67;;
13568;SDS011;6856;51.460;7.158;2022-12-10T13:07:28;33.47;;;24.67;;
13568;SDS011;6856;51.460;7.158;2022-12-10T13:10:18;36.87;;;27.60;;
13568;SDS011;6856;51.460;7.158;2022-12-10T13:13:16;33.13;;;24.07;;
13568;SDS011;6856;51.460;7.158;2022-12-10T13:19:49;29.57;;;21.40;;
13568;SDS011;6856;51.460;7.158;2022-12-10T13:22:41;34.33;;;22.97;;
13568;SDS011;6856;51.460;7.158;2022-12-10T13:25:55;29.97;;;21.90;;
13568;SDS011;6856;51.460;7.158;2022-12-10T13:28:40;29.43;;;21.37;;
13568;SDS011;6856;51.460;7.158;2022-12-10T13:31:33;31.20;;;22.20;;
13568;SDS011;6856;51.460;7.158;2022-12-10T13:34:29;31.97;;;22.83;;
13568;SDS011;6856;51.460;7.158;2022-12-10T13:37:17;33.23;;;23.23;;
13568;SDS011;6856;51.460;7.158;2022-12-10T13:40:12;31.70;;;22.40;;
13568;SDS011;6856;51.460;7.158;2022-12-10T13:43:26;34.43;;;24.13;;
13568;SDS011;6856;51.460;7.158;2022-12-10T13:46:30;30.53;;;23.27;;
13568;SDS011;6856;51.460;7.158;2022-12-10T13:49:12;30.63;;;22.80;;
13568;SDS011;6856;51.460;7.158;2022-12-10T13:51:57;31.00;;;21.63;;
13568;SDS011;6856;51.460;7.158;2022-12-10T13:58:10;30.23;;;22.40;;
13568;SDS011;6856;51.460;7.158;2022-12-10T14:01:16;30.80;;;21.60;;
13568;SDS011;6856;51.460;7.158;2022-12-10T14:07:37;28.33;;;20.83;;
13568;SDS011;6856;51.460;7.158;2022-12-10T14:10:17;26.73;;;19.80;;
13568;SDS011;6856;51.460;7.158;2022-12-10T14:12:58;28.60;;;20.60;;
13568;SDS011;6856;51.460;7.158;2022-12-10T14:15:39;28.47;;;22.07;;
13568;SDS011;6856;51.460;7.158;2022-12-10T14:18:25;27.77;;;21.33;;
13568;SDS011;6856;51.460;7.158;2022-12-10T14:21:03;25.63;;;20.67;;
13568;SDS011;6856;51.460;7.158;2022-12-10T14:23:44;25.13;;;19.33;;
13568;SDS011;6856;51.460;7.158;2022-12-10T14:26:27;24.80;;;18.33;;
13568;SDS011;6856;51.460;7.158;2022-12-10T14:29:16;23.30;;;18.33;;
13568;SDS011;6856;51.460;7.158;2022-12-10T14:32:03;25.60;;;18.33;;
13568;SDS011;6856;51.460;7.158;2022-12-10T14:34:43;24.40;;;18.57;;
13568;SDS011;6856;51.460;7.158;2022-12-10T14:37:26;23.70;;;18.27;;
13568;SDS011;6856;51.460;7.158;2022-12-10T14:40:09;26.17;;;19.13;;
13568;SDS011;6856;51.460;7.158;2022-12-10T14:42:57;25.13;;;19.17;;
13568;SDS011;6856;51.460;7.158;2022-12-10T14:45:42;26.03;;;19.40;;
13568;SDS011;6856;51.460;7.158;2022-12-10T14:48:20;31.93;;;24.70;;
13568;SDS011;6856;51.460;7.158;2022-12-10T14:51:02;27.53;;;21.53;;
13568;SDS011;6856;51.460;7.158;2022-12-10T14:53:43;25.63;;;20.03;;
13568;SDS011;6856;51.460;7.158;2022-12-10T14:56:22;27.23;;;20.17;;
13568;SDS011;6856;51.460;7.158;2022-12-10T14:59:04;26.17;;;19.17;;
13568;SDS011;6856;51.460;7.158;2022-12-10T15:01:45;28.20;;;19.60;;
13568;SDS011;6856;51.460;7.158;2022-12-10T15:04:38;23.97;;;18.53;;
13568;SDS011;6856;51.460;7.158;2022-12-10T15:07:18;25.03;;;18.80;;
13568;SDS011;6856;51.460;7.158;2022-12-10T15:09:56;27.70;;;20.53;;
13568;SDS011;6856;51.460;7.158;2022-12-10T15:12:36;24.43;;;18.57;;
13568;SDS011;6856;51.460;7.158;2022-12-10T15:15:16;24.97;;;18.60;;
13568;SDS011;6856;51.460;7.158;2022-12-10T15:18:00;25.53;;;19.73;;
13568;SDS011;6856;51.460;7.158;2022-12-10T15:20:50;27.07;;;20.33;;
13568;SDS011;6856;51.460;7.158;2022-12-10T15:23:37;29.33;;;21.63;;
13568;SDS011;6856;51.460;7.158;2022-12-10T15:26:14;28.60;;;20.97;;
13568;SDS011;6856;51.460;7.158;2022-12-10T15:29:14;28.63;;;20.33;;
13568;SDS011;6856;51.460;7.158;2022-12-10T15:32:10;25.93;;;18.40;;
13568;SDS011;6856;51.460;7.158;2022-12-10T15:34:50;25.63;;;18.60;;
13568;SDS011;6856;51.460;7.158;2022-12-10T15:37:32;28.07;;;20.60;;
13568;SDS011;6856;51.460;7.158;2022-12-10T15:40:21;25.57;;;19.60;;
13568;SDS011;6856;51.460;7.158;2022-12-10T15:43:10;27.23;;;19.53;;
13568;SDS011;6856;51.460;7.158;2022-12-10T15:45:54;25.60;;;19.60;;
13568;SDS011;6856;51.460;7.158;2022-12-10T15:48:31;29.13;;;20.93;;
13568;SDS011;6856;51.460;7.158;2022-12-10T15:51:07;28.93;;;20.97;;
13568;SDS011;6856;51.460;7.158;2022-12-10T15:53:41;28.80;;;20.13;;
13568;SDS011;6856;51.460;7.158;2022-12-10T15:56:15;29.50;;;22.47;;
13568;SDS011;6856;51.460;7.158;2022-12-10T15:58:49;31.07;;;22.10;;
13568;SDS011;6856;51.460;7.158;2022-12-10T16:01:25;27.90;;;20.43;;
13568;SDS011;6856;51.460;7.158;2022-12-10T16:04:01;24.87;;;18.87;;
13568;SDS011;6856;51.460;7.158;2022-12-10T16:06:40;24.87;;;17.63;;
13568;SDS011;6856;51.460;7.158;2022-12-10T16:09:14;26.43;;;18.03;;
13568;SDS011;6856;51.460;7.158;2022-12-10T16:11:49;24.43;;;17.93;;
13568;SDS011;6856;51.460;7.158;2022-12-10T16:14:24;25.27;;;18.93;;
13568;SDS011;6856;51.460;7.158;2022-12-10T16:16:59;24.70;;;18.97;;